Time;durP1;ratioP1;P1;durP2;ratioP2;P2;SDS_P1;SDS_P2;PMS_P1;PMS_P2;Temp;Humidity;BMP_temperature;BMP_pressure;BME280_temperature;BME280_humidity;BME280_pressure;Samples;Min_cycle;Max_cycle;Signal;HPM_P1;HPM_P2
2023/12/09 00:01:23;;;;;;;38.58;7.65;;;7.40;99.90;;;;;;4996616;28;20458;-91
2023/12/09 00:03:49;;;;;;;31.10;9.35;;;7.40;99.90;;;;;;4996216;28;20026;-92
2023/12/09 00:06:14;;;;;;;35.78;8.30;;;7.40;99.90;;;;;;4993968;28;20053;-91
2023/12/09 00:08:40;;;;;;;26.98;8.98;;;7.40;99.90;;;;;;5007702;28;20029;-90
2023/12/09 00:11:06;;;;;;;40.22;9.13;;;7.40;99.90;;;;;;4999424;28;20554;-90
2023/12/09 00:13:32;;;;;;;29.45;9.60;;;7.50;99.90;;;;;;5002581;28;20067;-91
2023/12/09 00:15:59;;;;;;;34.25;9.00;;;7.40;99.90;;;;;;4993778;28;20026;-91
2023/12/09 00:18:24;;;;;;;34.50;9.23;;;7.40;99.90;;;;;;4996653;28;20402;-91
2023/12/09 00:20:50;;;;;;;32.03;9.13;;;7.40;99.90;;;;;;5011442;28;20034;-91
2023/12/09 00:23:15;;;;;;;29.63;9.60;;;7.30;99.90;;;;;;4999955;28;20064;-91
2023/12/09 00:25:41;;;;;;;26.92;7.93;;;7.30;99.90;;;;;;4998263;28;20295;-91
2023/12/09 00:28:07;;;;;;;31.50;7.95;;;7.30;99.90;;;;;;4998282;28;20069;-91
2023/12/09 00:30:33;;;;;;;34.30;9.07;;;7.20;99.90;;;;;;4997321;28;20123;-91
2023/12/09 00:32:58;;;;;;;30.95;8.35;;;7.20;99.90;;;;;;5011462;28;21511;-91
2023/12/09 00:35:24;;;;;;;29.20;8.85;;;7.20;99.90;;;;;;4995668;28;20026;-91
2023/12/09 00:37:50;;;;;;;35.85;8.02;;;7.20;99.90;;;;;;4997926;28;20569;-90
2023/12/09 00:40:16;;;;;;;40.90;9.23;;;7.20;99.90;;;;;;4998705;28;20025;-90
2023/12/09 00:42:42;;;;;;;38.47;9.43;;;7.20;99.90;;;;;;4995013;28;20029;-91
2023/12/09 00:45:10;;;;;;;35.28;9.88;;;7.20;99.90;;;;;;4998016;28;20648;-91
2023/12/09 00:47:36;;;;;;;29.60;8.70;;;7.20;99.90;;;;;;5001211;28;20061;-90
2023/12/09 00:50:02;;;;;;;29.90;9.15;;;7.10;99.90;;;;;;4993919;28;20130;-91
2023/12/09 00:52:27;;;;;;;26.65;7.70;;;7.10;99.90;;;;;;4993723;28;20450;-89
2023/12/09 00:54:53;;;;;;;29.45;9.27;;;7.10;99.90;;;;;;4993326;28;20041;-91
2023/12/09 00:57:24;;;;;;;33.95;8.23;;;7.10;99.90;;;;;;5002308;28;20093;-90
2023/12/09 00:59:50;;;;;;;30.05;8.05;;;7.00;99.90;;;;;;4996082;28;20021;-92
2023/12/09 01:02:18;;;;;;;32.35;7.82;;;7.10;99.90;;;;;;4996905;28;20048;-90
2023/12/09 01:04:44;;;;;;;34.38;9.65;;;7.00;99.90;;;;;;4995042;28;20037;-92
2023/12/09 01:07:10;;;;;;;31.38;9.38;;;7.00;99.90;;;;;;4997742;28;20497;-91
2023/12/09 01:09:36;;;;;;;28.73;8.82;;;7.00;99.90;;;;;;5000694;28;20113;-90
2023/12/09 01:12:02;;;;;;;35.63;9.90;;;6.90;99.90;;;;;;4996361;28;20491;-91
2023/12/09 01:14:28;;;;;;;39.60;9.15;;;7.00;99.90;;;;;;4999079;28;20496;-91
2023/12/09 01:16:53;;;;;;;29.95;8.45;;;7.00;99.90;;;;;;4998222;28;20034;-91
2023/12/09 01:19:19;;;;;;;30.02;8.15;;;6.90;99.90;;;;;;4999416;28;20063;-91
2023/12/09 01:21:45;;;;;;;39.03;9.48;;;6.90;99.90;;;;;;4998046;28;20027;-90
2023/12/09 01:24:10;;;;;;;28.38;7.75;;;6.90;99.90;;;;;;4995192;28;20056;-90
2023/12/09 01:26:36;;;;;;;28.20;9.55;;;6.90;99.90;;;;;;4997865;28;20029;-91
2023/12/09 01:29:03;;;;;;;28.10;8.00;;;6.90;99.90;;;;;;4993528;28;20026;-90
2023/12/09 01:31:29;;;;;;;38.22;8.75;;;6.80;99.90;;;;;;4996496;28;20080;-91
2023/12/09 01:33:55;;;;;;;33.22;9.15;;;6.80;99.90;;;;;;4996415;28;20048;-91
2023/12/09 01:36:20;;;;;;;24.77;7.75;;;6.80;99.90;;;;;;5013366;28;20030;-90
2023/12/09 01:38:46;;;;;;;28.73;9.52;;;6.80;99.90;;;;;;4998366;28;20029;-90
2023/12/09 01:41:11;;;;;;;34.03;8.40;;;6.70;99.90;;;;;;4999747;28;20144;-90
2023/12/09 01:43:37;;;;;;;29.35;8.57;;;6.70;99.90;;;;;;4995897;28;20037;-90
2023/12/09 01:46:06;;;;;;;34.65;10.65;;;6.70;99.90;;;;;;4993811;28;20435;-90
2023/12/09 01:48:33;;;;;;;39.83;9.02;;;6.60;99.90;;;;;;4995674;28;20040;-91
2023/12/09 01:51:00;;;;;;;34.90;8.85;;;6.50;99.90;;;;;;4998172;28;20076;-90
2023/12/09 01:53:27;;;;;;;39.17;10.25;;;6.50;99.90;;;;;;4995094;28;20867;-90
2023/12/09 01:55:53;;;;;;;33.45;10.68;;;6.40;99.90;;;;;;4992544;28;20030;-91
2023/12/09 01:58:19;;;;;;;35.05;10.43;;;6.40;99.90;;;;;;4991064;28;20026;-90
2023/12/09 02:00:45;;;;;;;35.63;9.40;;;6.50;99.90;;;;;;4995094;28;20034;-90
2023/12/09 02:03:11;;;;;;;33.25;9.38;;;6.40;99.90;;;;;;4995965;28;20137;-91
2023/12/09 02:05:37;;;;;;;31.83;8.82;;;6.50;99.90;;;;;;4992302;28;20612;-91
2023/12/09 02:08:03;;;;;;;31.25;10.93;;;6.40;99.90;;;;;;4992607;28;20056;-90
2023/12/09 02:10:29;;;;;;;30.20;10.07;;;6.30;99.90;;;;;;4994359;28;20018;-92
2023/12/09 02:13:07;;;;;;;32.65;9.52;;;6.30;99.90;;;;;;5001536;28;20042;-91
2023/12/09 02:15:40;;;;;;;39.42;10.13;;;6.30;99.90;;;;;;4993209;28;20037;-91
2023/12/09 02:18:07;;;;;;;27.48;9.88;;;6.30;99.90;;;;;;4997046;28;20030;-90
2023/12/09 02:20:34;;;;;;;37.30;9.80;;;6.30;99.90;;;;;;4992605;28;20044;-91
2023/12/09 02:23:07;;;;;;;36.97;10.02;;;6.30;99.90;;;;;;5012474;28;20022;-91
2023/12/09 02:25:34;;;;;;;29.50;10.80;;;6.20;99.90;;;;;;4995511;28;20044;-90
2023/12/09 02:28:21;;;;;;;28.67;9.02;;;6.20;99.90;;;;;;4993438;28;20038;-91
2023/12/09 02:30:54;;;;;;;35.92;10.55;;;6.20;99.90;;;;;;5000863;28;20117;-90
2023/12/09 02:33:21;;;;;;;31.45;8.70;;;6.20;99.90;;;;;;4998550;28;20037;-91
2023/12/09 02:35:49;;;;;;;26.55;8.73;;;6.20;99.90;;;;;;4995209;28;20026;-91
2023/12/09 02:38:17;;;;;;;35.97;9.05;;;6.20;99.90;;;;;;4991827;28;20040;-90
2023/12/09 02:40:43;;;;;;;35.42;9.68;;;6.20;99.90;;;;;;4997965;28;20025;-91
2023/12/09 02:43:10;;;;;;;42.92;10.80;;;6.10;99.90;;;;;;4993543;28;20087;-91
2023/12/09 02:45:36;;;;;;;32.30;9.35;;;6.10;99.90;;;;;;5008952;28;21704;-91
2023/12/09 02:48:03;;;;;;;31.40;10.05;;;6.10;99.90;;;;;;4991308;28;20466;-91
2023/12/09 02:50:29;;;;;;;31.75;9.55;;;6.10;99.90;;;;;;4995597;28;20018;-90
2023/12/09 02:52:54;;;;;;;29.85;8.68;;;6.10;99.90;;;;;;4995545;28;20038;-90
2023/12/09 02:55:20;;;;;;;36.75;9.25;;;6.10;99.90;;;;;;4997437;28;20474;-90
2023/12/09 02:57:46;;;;;;;30.17;8.45;;;6.00;99.90;;;;;;4995787;28;20095;-90
2023/12/09 03:00:12;;;;;;;32.30;9.90;;;6.00;99.90;;;;;;4994764;28;20124;-90
2023/12/09 03:02:37;;;;;;;30.50;9.32;;;6.00;99.90;;;;;;4994013;28;20129;-90
2023/12/09 03:05:03;;;;;;;31.48;8.90;;;6.00;99.90;;;;;;4994455;28;20100;-89
2023/12/09 03:07:28;;;;;;;28.27;8.80;;;6.00;99.90;;;;;;4989754;28;20033;-90
2023/12/09 03:09:54;;;;;;;30.55;9.35;;;6.00;99.90;;;;;;4990185;28;20025;-91
2023/12/09 03:12:20;;;;;;;31.52;9.30;;;6.00;99.90;;;;;;4999847;28;20070;-90
2023/12/09 03:14:45;;;;;;;27.65;8.90;;;5.90;99.90;;;;;;4998665;28;21190;-90
2023/12/09 03:17:11;;;;;;;34.35;10.27;;;6.00;99.90;;;;;;4993011;28;20034;-90
2023/12/09 03:19:36;;;;;;;30.48;8.93;;;6.00;99.90;;;;;;4991736;28;20438;-90
2023/12/09 03:22:03;;;;;;;30.35;8.93;;;6.00;99.90;;;;;;4996430;28;20038;-90
2023/12/09 03:24:28;;;;;;;49.17;12.07;;;6.00;99.90;;;;;;4995120;28;20081;-91
2023/12/09 03:26:54;;;;;;;28.27;8.45;;;6.00;99.90;;;;;;4992849;28;20038;-90
2023/12/09 03:29:20;;;;;;;36.15;8.60;;;6.10;99.90;;;;;;4991918;28;20042;-90
2023/12/09 03:31:46;;;;;;;25.92;8.25;;;6.10;99.90;;;;;;5007927;28;20038;-91
2023/12/09 03:34:13;;;;;;;34.88;8.43;;;6.10;99.90;;;;;;4996990;28;20456;-91
2023/12/09 03:36:38;;;;;;;31.92;8.55;;;6.10;99.90;;;;;;4996346;28;20069;-90
2023/12/09 03:39:04;;;;;;;38.60;10.30;;;6.10;99.90;;;;;;4999713;28;20053;-90
2023/12/09 03:41:29;;;;;;;24.55;8.48;;;6.10;99.90;;;;;;4994733;28;20044;-91
2023/12/09 03:43:56;;;;;;;28.35;8.70;;;6.10;99.90;;;;;;5006633;28;20040;-91
2023/12/09 03:46:21;;;;;;;23.90;8.00;;;6.10;99.90;;;;;;5006994;28;20494;-91
2023/12/09 03:48:47;;;;;;;32.80;8.02;;;6.10;99.90;;;;;;4991621;28;20038;-92
2023/12/09 03:51:13;;;;;;;36.92;8.70;;;6.20;99.90;;;;;;4996489;28;20617;-91
2023/12/09 03:53:40;;;;;;;31.80;7.90;;;6.30;99.90;;;;;;4992257;28;20119;-91
2023/12/09 03:56:06;;;;;;;34.38;7.80;;;6.40;99.90;;;;;;5007420;28;20390;-91
2023/12/09 03:58:32;;;;;;;23.73;7.72;;;6.40;99.90;;;;;;4994036;28;20033;-91
2023/12/09 04:00:58;;;;;;;38.05;8.27;;;6.40;99.90;;;;;;4996400;28;20508;-91
2023/12/09 04:03:23;;;;;;;44.88;8.43;;;6.50;99.90;;;;;;4989716;28;20026;-91
2023/12/09 04:05:50;;;;;;;31.67;8.15;;;6.50;99.90;;;;;;4995247;28;20053;-91
2023/12/09 04:08:15;;;;;;;27.42;6.57;;;6.50;99.90;;;;;;4994080;28;20034;-91
2023/12/09 04:10:41;;;;;;;23.60;6.40;;;6.50;99.90;;;;;;4992195;28;20583;-92
2023/12/09 04:13:06;;;;;;;29.08;7.55;;;6.50;99.90;;;;;;4997802;28;20065;-91
2023/12/09 04:15:32;;;;;;;29.65;6.90;;;6.50;99.90;;;;;;4994732;28;20056;-91
2023/12/09 04:17:57;;;;;;;27.98;6.63;;;6.40;99.90;;;;;;4994924;28;20092;-91
2023/12/09 04:20:23;;;;;;;31.40;7.03;;;6.40;99.90;;;;;;5018248;28;20550;-91
2023/12/09 04:22:49;;;;;;;30.38;7.55;;;6.40;99.90;;;;;;4996611;28;20034;-92
2023/12/09 04:25:14;;;;;;;24.90;8.05;;;6.40;99.90;;;;;;4998016;28;20076;-91
2023/12/09 04:27:40;;;;;;;31.77;6.60;;;6.40;99.90;;;;;;4997351;28;20037;-92
2023/12/09 04:30:06;;;;;;;26.35;6.63;;;6.40;99.90;;;;;;5010466;28;20028;-92
2023/12/09 04:32:32;;;;;;;29.38;6.60;;;6.40;99.90;;;;;;5002202;28;20041;-91
2023/12/09 04:34:58;;;;;;;24.02;5.88;;;6.40;99.90;;;;;;4998307;28;20026;-91
2023/12/09 04:37:24;;;;;;;25.70;5.93;;;6.30;99.90;;;;;;5014571;28;20088;-91
2023/12/09 04:39:50;;;;;;;32.92;6.03;;;6.40;99.90;;;;;;5012785;28;20025;-91
2023/12/09 04:42:16;;;;;;;32.63;6.68;;;6.30;99.90;;;;;;5001085;28;20037;-92
2023/12/09 04:44:42;;;;;;;28.73;6.70;;;6.30;99.90;;;;;;5001415;28;20023;-91
2023/12/09 04:47:07;;;;;;;25.15;6.35;;;6.30;99.90;;;;;;4996099;28;20050;-91
2023/12/09 04:49:33;;;;;;;22.52;6.03;;;6.30;99.90;;;;;;4998305;28;20053;-91
2023/12/09 04:51:59;;;;;;;24.92;5.65;;;6.30;99.90;;;;;;4996044;28;20049;-91
2023/12/09 04:54:24;;;;;;;25.55;6.40;;;6.30;99.90;;;;;;4998362;28;20030;-92
2023/12/09 04:56:50;;;;;;;31.30;7.03;;;6.30;99.90;;;;;;4994415;28;20030;-91
2023/12/09 04:59:16;;;;;;;32.67;7.22;;;6.30;99.90;;;;;;4999059;28;20026;-91
2023/12/09 05:01:41;;;;;;;26.15;5.88;;;6.30;99.90;;;;;;5009632;28;20470;-91
2023/12/09 05:04:08;;;;;;;25.92;6.50;;;6.20;99.90;;;;;;4997921;28;20741;-91
2023/12/09 05:06:33;;;;;;;33.22;6.28;;;6.20;99.90;;;;;;4999464;28;20592;-91
2023/12/09 05:08:59;;;;;;;23.95;5.82;;;6.20;99.90;;;;;;4997912;28;20140;-91
2023/12/09 05:11:25;;;;;;;29.70;5.90;;;6.20;99.90;;;;;;4997751;28;20026;-91
2023/12/09 05:13:50;;;;;;;33.78;7.00;;;6.20;99.90;;;;;;5010138;28;20100;-91
2023/12/09 05:16:16;;;;;;;24.45;6.43;;;6.20;99.90;;;;;;5000496;28;20121;-91
2023/12/09 05:18:41;;;;;;;20.70;6.32;;;6.10;99.90;;;;;;4997654;28;20042;-90
2023/12/09 05:21:07;;;;;;;27.67;6.32;;;6.10;99.90;;;;;;4994080;28;20062;-91
2023/12/09 05:23:33;;;;;;;24.35;6.45;;;6.10;99.90;;;;;;4997770;28;20041;-91
2023/12/09 05:25:59;;;;;;;29.80;6.38;;;6.10;99.90;;;;;;5000541;28;20030;-91
2023/12/09 05:28:24;;;;;;;23.95;6.03;;;6.10;99.90;;;;;;4992664;28;20029;-91
2023/12/09 05:30:50;;;;;;;20.15;6.50;;;6.10;99.90;;;;;;4996782;28;20030;-91
2023/12/09 05:33:16;;;;;;;24.83;6.43;;;6.10;99.90;;;;;;4991091;28;20068;-91
2023/12/09 05:35:41;;;;;;;23.98;6.93;;;6.10;99.90;;;;;;4997687;28;20022;-91
2023/12/09 05:38:07;;;;;;;20.58;5.40;;;6.10;99.90;;;;;;4999796;28;20038;-91
2023/12/09 05:40:32;;;;;;;24.02;6.57;;;6.10;99.90;;;;;;5006404;28;20026;-91
2023/12/09 05:42:58;;;;;;;23.27;5.40;;;6.00;99.90;;;;;;5011725;28;20034;-92
2023/12/09 05:45:24;;;;;;;21.63;5.93;;;6.00;99.90;;;;;;5011734;28;20025;-91
2023/12/09 05:47:49;;;;;;;25.00;6.10;;;6.10;99.90;;;;;;5012914;28;20022;-91
2023/12/09 05:50:15;;;;;;;27.02;6.28;;;6.00;99.90;;;;;;5012436;28;20022;-91
2023/12/09 05:52:43;;;;;;;33.80;8.05;;;6.00;99.90;;;;;;5030888;28;20065;-90
2023/12/09 05:55:09;;;;;;;23.73;5.22;;;6.10;99.90;;;;;;5008233;28;20033;-91
2023/12/09 05:57:34;;;;;;;29.42;5.60;;;6.10;99.90;;;;;;5006427;28;20116;-91
2023/12/09 06:00:00;;;;;;;29.98;6.18;;;6.10;99.90;;;;;;5012814;28;20105;-91
2023/12/09 06:02:26;;;;;;;27.95;6.03;;;6.20;99.90;;;;;;5029073;28;20326;-90
2023/12/09 06:04:51;;;;;;;22.60;5.10;;;6.10;99.90;;;;;;5010773;28;20037;-91
2023/12/09 06:07:17;;;;;;;22.63;5.90;;;6.10;99.90;;;;;;5012270;28;20050;-90
2023/12/09 06:09:43;;;;;;;22.58;5.10;;;6.10;99.90;;;;;;5011853;28;20029;-90
2023/12/09 06:12:08;;;;;;;21.23;4.38;;;6.20;99.90;;;;;;5007725;28;20391;-90
2023/12/09 06:14:34;;;;;;;20.13;4.13;;;6.20;99.90;;;;;;5008246;28;20037;-90
2023/12/09 06:16:59;;;;;;;23.67;4.28;;;6.20;99.90;;;;;;5012248;28;20184;-90
2023/12/09 06:19:25;;;;;;;26.08;5.40;;;6.20;99.90;;;;;;5010638;28;20030;-91
2023/12/09 06:21:51;;;;;;;32.50;7.38;;;6.10;99.90;;;;;;5010102;28;20025;-90
2023/12/09 06:24:16;;;;;;;22.02;5.03;;;6.10;99.90;;;;;;5010204;28;20113;-90
2023/12/09 06:26:44;;;;;;;17.65;4.13;;;6.20;99.90;;;;;;5010810;28;20221;-90
2023/12/09 06:29:12;;;;;;;30.13;5.57;;;6.20;99.90;;;;;;5011411;28;20164;-90
2023/12/09 06:31:38;;;;;;;21.17;4.57;;;6.20;99.90;;;;;;5015681;28;20029;-91
2023/12/09 06:34:03;;;;;;;20.13;3.75;;;6.20;99.90;;;;;;5011492;28;20121;-90
2023/12/09 06:36:29;;;;;;;25.33;5.38;;;6.20;99.90;;;;;;5012057;28;20033;-90
2023/12/09 06:38:54;;;;;;;19.58;4.03;;;6.20;99.90;;;;;;5009916;28;20029;-90
2023/12/09 06:41:20;;;;;;;22.20;4.85;;;6.20;99.90;;;;;;5017207;28;20080;-90
2023/12/09 06:43:46;;;;;;;21.23;4.50;;;6.20;99.90;;;;;;5025599;28;20052;-90
2023/12/09 06:46:11;;;;;;;20.10;4.75;;;6.20;99.90;;;;;;5025736;28;20022;-90
2023/12/09 06:48:38;;;;;;;21.38;4.00;;;6.20;99.90;;;;;;5011179;28;20026;-91
2023/12/09 06:51:07;;;;;;;23.15;5.72;;;6.20;99.90;;;;;;5012246;28;20045;-90
2023/12/09 06:53:32;;;;;;;30.98;7.82;;;6.20;99.90;;;;;;5023835;28;20042;-89
2023/12/09 06:55:58;;;;;;;25.15;7.88;;;6.30;99.90;;;;;;5009333;28;20030;-91
2023/12/09 06:58:24;;;;;;;25.73;6.72;;;6.30;99.90;;;;;;5006925;28;20128;-90
2023/12/09 07:00:50;;;;;;;38.47;8.38;;;6.30;99.90;;;;;;5004685;28;20391;-89
2023/12/09 07:03:16;;;;;;;20.77;7.03;;;6.30;99.90;;;;;;5007072;28;20034;-90
2023/12/09 07:05:41;;;;;;;29.33;7.03;;;6.30;99.90;;;;;;5009754;28;20037;-91
2023/12/09 07:08:10;;;;;;;26.17;6.95;;;6.30;99.90;;;;;;5016987;28;20390;-90
2023/12/09 07:10:36;;;;;;;32.88;7.03;;;6.30;99.90;;;;;;5008289;28;20144;-89
2023/12/09 07:13:02;;;;;;;27.77;7.93;;;6.40;99.90;;;;;;5027508;28;20125;-89
2023/12/09 07:15:27;;;;;;;27.10;6.55;;;6.30;99.90;;;;;;4997788;28;20030;-90
2023/12/09 07:17:53;;;;;;;23.42;6.72;;;6.30;99.90;;;;;;4993241;28;20023;-91
2023/12/09 07:20:18;;;;;;;18.55;4.85;;;6.40;99.90;;;;;;4989063;28;20544;-89
2023/12/09 07:22:44;;;;;;;24.33;5.53;;;6.30;99.90;;;;;;4996165;28;20041;-90
2023/12/09 07:25:10;;;;;;;23.92;6.50;;;6.40;99.90;;;;;;4992524;28;20455;-90
2023/12/09 07:27:35;;;;;;;19.85;5.55;;;6.40;99.90;;;;;;4993606;28;20063;-89
2023/12/09 07:30:01;;;;;;;19.95;5.68;;;6.40;99.90;;;;;;4994031;28;20026;-90
2023/12/09 07:32:27;;;;;;;23.60;8.00;;;6.40;99.90;;;;;;5007211;28;20128;-90
2023/12/09 07:34:52;;;;;;;21.75;6.18;;;6.40;99.90;;;;;;5006024;28;20033;-90
2023/12/09 07:37:18;;;;;;;16.05;5.50;;;6.50;99.90;;;;;;5006638;28;20033;-89
2023/12/09 07:39:43;;;;;;;23.02;7.75;;;6.50;99.90;;;;;;4995210;28;20026;-90
2023/12/09 07:42:09;;;;;;;27.50;8.38;;;6.50;99.90;;;;;;4990072;28;20030;-90
2023/12/09 07:44:35;;;;;;;24.00;6.85;;;6.50;99.90;;;;;;4990905;28;20583;-90
2023/12/09 07:47:01;;;;;;;28.00;7.78;;;6.50;99.90;;;;;;4995203;28;20026;-90
2023/12/09 07:49:26;;;;;;;30.65;9.52;;;6.50;99.90;;;;;;4995961;28;20033;-90
2023/12/09 07:51:52;;;;;;;28.10;8.00;;;6.60;99.90;;;;;;4993091;28;20398;-90
2023/12/09 07:54:17;;;;;;;21.92;8.55;;;6.50;99.90;;;;;;4993196;28;20490;-89
2023/12/09 07:56:43;;;;;;;36.83;8.18;;;6.60;99.90;;;;;;4996878;28;20382;-90
2023/12/09 07:59:09;;;;;;;27.40;8.57;;;6.60;99.90;;;;;;4995933;28;20034;-89
2023/12/09 08:01:35;;;;;;;31.17;8.20;;;6.60;99.90;;;;;;5008467;28;20028;-90
2023/12/09 08:04:00;;;;;;;30.27;8.50;;;6.70;99.90;;;;;;5009910;28;20024;-89
2023/12/09 08:06:26;;;;;;;22.90;6.32;;;6.70;99.90;;;;;;4996413;28;20054;-90
2023/12/09 08:08:51;;;;;;;23.77;7.18;;;6.80;99.90;;;;;;4993544;28;20045;-90
2023/12/09 08:11:21;;;;;;;19.67;5.55;;;6.70;99.90;;;;;;5011051;28;20060;-90
2023/12/09 08:13:47;;;;;;;27.55;5.82;;;6.80;99.90;;;;;;5007551;28;20038;-89
2023/12/09 08:16:13;;;;;;;24.63;6.57;;;6.80;99.90;;;;;;5009685;28;20505;-90
2023/12/09 08:18:39;;;;;;;28.50;7.43;;;6.90;99.90;;;;;;5012640;28;20040;-90
2023/12/09 08:21:05;;;;;;;32.30;7.75;;;6.90;99.90;;;;;;5008407;28;20026;-90
2023/12/09 08:23:30;;;;;;;20.15;6.70;;;6.90;99.90;;;;;;5002524;28;20057;-90
2023/12/09 08:25:56;;;;;;;21.40;6.88;;;6.90;99.90;;;;;;5011179;28;20030;-90
2023/12/09 08:28:21;;;;;;;27.27;7.07;;;7.00;99.90;;;;;;5010288;28;20386;-90
2023/12/09 08:30:47;;;;;;;27.40;7.47;;;7.00;99.90;;;;;;5006437;28;20045;-91
2023/12/09 08:33:13;;;;;;;20.08;6.15;;;7.00;99.90;;;;;;5009946;28;20422;-91
2023/12/09 08:35:39;;;;;;;24.98;5.78;;;7.00;99.90;;;;;;5010773;28;20573;-91
2023/12/09 08:38:05;;;;;;;19.77;5.43;;;7.00;99.90;;;;;;5031830;28;20032;-92
2023/12/09 08:40:30;;;;;;;18.27;5.35;;;7.10;99.90;;;;;;5010003;28;20095;-91
2023/12/09 08:42:56;;;;;;;20.30;3.85;;;7.10;99.90;;;;;;4996695;28;20046;-92
2023/12/09 08:45:21;;;;;;;13.50;3.70;;;7.10;99.90;;;;;;4996222;28;20112;-91
2023/12/09 08:47:47;;;;;;;12.95;3.42;;;7.20;99.90;;;;;;5005696;28;20026;-91
2023/12/09 08:50:13;;;;;;;14.70;3.17;;;7.20;99.90;;;;;;5011856;28;20030;-92
2023/12/09 08:52:39;;;;;;;13.35;2.55;;;7.20;99.90;;;;;;5012798;28;20073;-91
2023/12/09 08:55:05;;;;;;;13.10;3.03;;;7.30;99.90;;;;;;5006231;28;20049;-92
2023/12/09 08:57:31;;;;;;;20.15;3.47;;;7.30;99.90;;;;;;5009036;28;20026;-91
2023/12/09 08:59:56;;;;;;;19.30;4.13;;;7.40;99.90;;;;;;5013339;28;20028;-91
2023/12/09 09:02:22;;;;;;;14.57;4.25;;;7.40;99.90;;;;;;5007987;28;20057;-92
2023/12/09 09:04:48;;;;;;;16.13;4.53;;;7.50;99.90;;;;;;5010152;28;20176;-91
2023/12/09 09:07:14;;;;;;;19.00;4.93;;;7.50;99.90;;;;;;4958214;28;1154129;-91
2023/12/09 09:09:40;;;;;;;16.67;5.18;;;7.50;99.90;;;;;;5014054;28;20425;-91
2023/12/09 09:12:07;;;;;;;25.25;5.88;;;7.50;99.90;;;;;;5015442;28;20084;-91
2023/12/09 09:14:33;;;;;;;17.08;5.82;;;7.50;99.90;;;;;;5029599;28;20133;-91
2023/12/09 09:16:59;;;;;;;22.80;5.38;;;7.50;99.90;;;;;;5011373;28;20585;-91
2023/12/09 09:19:25;;;;;;;19.00;3.55;;;7.60;99.90;;;;;;5014152;28;20459;-92
2023/12/09 09:21:52;;;;;;;22.80;3.65;;;7.60;99.90;;;;;;5014093;28;20129;-91
2023/12/09 09:24:18;;;;;;;14.75;2.55;;;7.60;99.90;;;;;;5013083;28;20510;-91
2023/12/09 09:26:43;;;;;;;16.30;3.22;;;7.60;99.90;;;;;;5010253;28;20026;-90
2023/12/09 09:29:10;;;;;;;10.45;2.25;;;7.70;99.90;;;;;;5013821;28;20030;-91
2023/12/09 09:31:36;;;;;;;16.05;1.90;;;7.70;99.90;;;;;;5010367;28;20065;-91
2023/12/09 09:34:01;;;;;;;15.32;2.50;;;7.70;99.90;;;;;;5005580;28;20089;-91
2023/12/09 09:36:27;;;;;;;13.27;2.53;;;7.70;99.90;;;;;;5000872;28;20030;-92
2023/12/09 09:38:53;;;;;;;16.95;2.53;;;7.80;99.90;;;;;;5008128;28;20038;-91
2023/12/09 09:41:43;;;;;;;15.75;2.85;;;7.70;99.90;;;;;;4999714;28;20026;-90
2023/12/09 09:44:13;;;;;;;9.23;2.40;;;7.80;99.90;;;;;;5005393;28;20033;-90
2023/12/09 09:46:40;;;;;;;11.15;2.10;;;7.80;99.90;;;;;;5001742;28;20125;-91
2023/12/09 09:49:10;;;;;;;13.20;2.28;;;7.80;99.90;;;;;;4994712;28;21679;-95
2023/12/09 09:51:37;;;;;;;16.15;2.40;;;7.80;99.90;;;;;;4997516;28;20144;-91
2023/12/09 09:54:23;;;;;;;17.77;2.67;;;7.80;99.90;;;;;;4997519;28;23400;-91
2023/12/09 09:56:50;;;;;;;12.82;1.40;;;8.00;99.90;;;;;;4995724;28;20033;-91
2023/12/09 09:59:20;;;;;;;18.20;2.03;;;7.90;99.90;;;;;;4994764;28;20018;-90
2023/12/09 10:01:46;;;;;;;16.75;2.45;;;8.00;99.90;;;;;;5011122;28;20057;-89
2023/12/09 10:04:12;;;;;;;11.95;1.80;;;8.00;99.90;;;;;;5000299;28;20108;-91
2023/12/09 10:06:39;;;;;;;15.57;2.00;;;8.10;99.90;;;;;;4997400;28;20291;-91
2023/12/09 10:09:05;;;;;;;14.38;1.83;;;8.10;99.90;;;;;;4994673;28;20045;-92
2023/12/09 10:11:31;;;;;;;12.75;1.65;;;8.10;99.90;;;;;;5002281;28;20034;-92
2023/12/09 10:13:56;;;;;;;10.07;1.50;;;8.20;99.90;;;;;;5003970;28;20060;-92
2023/12/09 10:16:22;;;;;;;12.80;1.98;;;8.20;99.90;;;;;;5009910;28;20076;-92
2023/12/09 10:18:48;;;;;;;11.57;2.10;;;8.30;99.90;;;;;;5010598;28;20225;-91
2023/12/09 10:21:15;;;;;;;15.00;2.03;;;8.30;99.90;;;;;;5001639;28;20061;-92
2023/12/09 10:23:41;;;;;;;16.30;1.92;;;8.30;99.90;;;;;;5007714;28;20030;-92
2023/12/09 10:26:08;;;;;;;8.85;1.45;;;8.40;99.90;;;;;;4993194;28;20022;-91
2023/12/09 10:28:34;;;;;;;14.23;2.53;;;8.40;99.90;;;;;;4999226;28;20049;-92
2023/12/09 10:31:03;;;;;;;9.15;1.45;;;8.50;99.90;;;;;;5011389;28;20485;-91
2023/12/09 10:33:30;;;;;;;10.13;1.70;;;8.60;99.90;;;;;;5011505;28;20045;-91
2023/12/09 10:35:56;;;;;;;8.52;1.38;;;8.70;99.90;;;;;;5010080;28;20021;-91
2023/12/09 10:38:22;;;;;;;9.98;1.55;;;8.60;99.90;;;;;;5011688;28;20056;-92
2023/12/09 10:40:49;;;;;;;12.93;1.63;;;8.70;99.90;;;;;;5010067;28;20057;-91
2023/12/09 10:43:15;;;;;;;12.25;1.15;;;8.70;99.90;;;;;;5012128;28;20034;-90
2023/12/09 10:45:41;;;;;;;15.50;1.35;;;8.70;99.90;;;;;;5011541;28;20022;-92
2023/12/09 10:48:07;;;;;;;12.32;1.27;;;8.70;99.90;;;;;;5011811;28;20022;-91
2023/12/09 10:50:35;;;;;;;13.10;1.48;;;8.70;99.90;;;;;;5012008;28;20029;-92
2023/12/09 10:53:01;;;;;;;14.05;1.85;;;8.70;99.90;;;;;;5007168;28;20033;-91
2023/12/09 10:55:29;;;;;;;10.77;2.15;;;8.80;99.90;;;;;;5009583;28;20079;-91
2023/12/09 10:57:56;;;;;;;17.38;2.53;;;8.80;99.90;;;;;;5005497;28;20038;-93
2023/12/09 11:00:24;;;;;;;13.63;3.20;;;8.80;99.90;;;;;;5011058;28;20035;-92
2023/12/09 11:02:52;;;;;;;10.73;1.63;;;8.80;99.90;;;;;;5005228;28;20026;-91
2023/12/09 11:05:19;;;;;;;9.90;1.25;;;8.90;99.90;;;;;;5013653;28;20537;-92
2023/12/09 11:07:47;;;;;;;8.65;1.33;;;8.80;99.90;;;;;;5010953;28;20085;-92
2023/12/09 11:10:13;;;;;;;8.73;2.08;;;8.80;99.90;;;;;;5011660;28;20025;-92
2023/12/09 11:12:41;;;;;;;10.70;2.13;;;8.70;99.90;;;;;;5011310;28;20137;-92
2023/12/09 11:15:13;;;;;;;7.68;0.90;;;8.70;99.90;;;;;;5010799;28;20091;-92
2023/12/09 11:17:40;;;;;;;9.00;1.05;;;8.80;99.90;;;;;;5012068;28;20044;-93
2023/12/09 11:20:10;;;;;;;6.57;1.00;;;8.70;99.90;;;;;;5012265;28;20478;-92
2023/12/09 11:22:43;;;;;;;6.68;0.90;;;8.70;99.90;;;;;;5010732;28;20030;-91
2023/12/09 11:25:10;;;;;;;7.05;1.10;;;8.70;99.90;;;;;;5011206;28;20034;-92
2023/12/09 11:27:37;;;;;;;7.53;0.65;;;8.70;99.90;;;;;;5011566;28;20061;-92
2023/12/09 11:30:04;;;;;;;7.28;0.80;;;8.70;99.90;;;;;;5004936;28;20029;-92
2023/12/09 11:32:31;;;;;;;10.57;1.13;;;8.70;99.90;;;;;;5008444;28;20034;-92
2023/12/09 11:34:57;;;;;;;12.30;1.90;;;8.70;99.90;;;;;;5011314;28;20026;-92
2023/12/09 11:37:26;;;;;;;11.88;2.35;;;8.70;99.90;;;;;;5010906;28;20041;-93
2023/12/09 11:39:57;;;;;;;7.00;1.00;;;8.70;99.90;;;;;;5007993;28;20455;-92
2023/12/09 11:42:23;;;;;;;7.97;1.30;;;8.60;99.90;;;;;;5000417;28;20112;-92
2023/12/09 11:44:50;;;;;;;7.28;0.90;;;8.60;99.90;;;;;;5009976;28;20426;-91
2023/12/09 11:47:18;;;;;;;14.95;1.52;;;8.60;99.90;;;;;;5010083;28;20033;-91
2023/12/09 11:49:45;;;;;;;14.32;2.10;;;8.60;99.90;;;;;;5007555;28;20026;-90
2023/12/09 11:52:11;;;;;;;6.47;0.80;;;8.50;99.90;;;;;;5010904;28;20062;-90
2023/12/09 11:54:36;;;;;;;4.90;0.50;;;8.50;99.90;;;;;;5009978;28;20064;-90
2023/12/09 11:57:03;;;;;;;9.63;0.85;;;8.60;99.90;;;;;;5008374;28;20026;-91
2023/12/09 11:59:28;;;;;;;7.30;1.05;;;8.60;99.90;;;;;;5011142;28;20030;-91
2023/12/09 12:01:54;;;;;;;9.77;0.90;;;8.60;99.90;;;;;;5008714;28;20030;-91
2023/12/09 12:04:19;;;;;;;8.90;1.05;;;8.70;99.90;;;;;;5012702;28;20026;-90
2023/12/09 12:06:45;;;;;;;10.05;0.73;;;8.70;99.90;;;;;;5001735;28;20371;-90
2023/12/09 12:09:11;;;;;;;10.02;0.60;;;8.80;99.90;;;;;;5000963;28;20123;-90
2023/12/09 12:11:37;;;;;;;6.90;1.60;;;8.80;99.90;;;;;;5016308;28;20528;-90
2023/12/09 12:14:04;;;;;;;7.47;0.75;;;8.80;99.90;;;;;;5029338;28;20038;-90
2023/12/09 12:16:30;;;;;;;7.57;1.08;;;8.90;99.90;;;;;;5003074;28;20090;-90
2023/12/09 12:18:55;;;;;;;7.13;0.70;;;8.90;99.90;;;;;;5007565;28;20112;-91
2023/12/09 12:21:21;;;;;;;10.60;0.77;;;8.80;99.90;;;;;;5011902;28;20022;-91
2023/12/09 12:23:51;;;;;;;8.63;0.90;;;8.90;99.90;;;;;;5011846;28;20061;-88
2023/12/09 12:26:17;;;;;;;7.25;0.80;;;8.90;99.90;;;;;;5003040;28;20530;-89
2023/12/09 12:28:47;;;;;;;8.05;1.00;;;8.80;99.90;;;;;;5010631;28;20084;-88
2023/12/09 12:31:13;;;;;;;10.20;0.95;;;8.90;99.90;;;;;;5009358;28;20494;-88
2023/12/09 12:33:39;;;;;;;6.22;1.00;;;8.90;99.90;;;;;;5008999;28;20049;-86
2023/12/09 12:36:05;;;;;;;10.73;0.70;;;8.90;99.90;;;;;;5030369;28;20026;-88
2023/12/09 12:38:32;;;;;;;10.55;0.70;;;8.90;99.90;;;;;;5018653;28;20117;-86
2023/12/09 12:40:57;;;;;;;7.38;1.25;;;8.80;99.90;;;;;;5009378;28;20029;-88
2023/12/09 12:43:28;;;;;;;4.65;0.50;;;8.80;99.90;;;;;;5007247;28;20026;-87